Hastings, MN (55033)

3:23 AM CDT on May 27, 2015 (GMT -0500)
Westwood | | Change Station
CLOSE
Current Station
Personal Weather Station
Location: Hastings, MN
Elevation: 794 ft
Nearby Weather Stations

Elev 794 ft 44.73 °N, 92.86 °W | Updated 38 seconds ago

Overcast
Overcast
55.9 °F
Feels Like 55.9 °F
N
0.0
Wind Variable Wind from SSW
Gusts 0.0 mph

Today
High -- | Low -- °F
--% Chance of Precip.
Yesterday
High -- | Low -- °F
Precip. -- in
5:32 AM 8:45 PM
Waxing Gibbous, 65% visible
Pressure 29.84 in
Visibility 7.0 miles
Clouds Scattered Clouds 7000 ft
Dew Point 56 °F
Humidity 99%
Rainfall 0.00 in
Snow Depth Not available.
UV 0.0 out of 12
Pollen 3.60 out of 12
Air Quality Not available.
Flu Activity Sporadic
METAR KSGS 270814Z AUTO 00000KT 7SM SCT070 14/13 A2984 RMK AO2 T01380130

More Conditions Fewer Conditions

Pressure 29.84 in
Visibility 7.0 miles
Clouds Scattered Clouds 7000 ft
Dew Point 56 °F
Humidity 99%
Rainfall 0.00 in
Snow Depth Not available.
UV 0.0 out of 12
Pollen 3.60 out of 12
Air Quality Not available.
Flu Activity Sporadic
METAR KSGS 270814Z AUTO 00000KT 7SM SCT070 14/13 A2984 RMK AO2 T01380130

More Conditions Fewer Conditions

10-Day Weather Forecast

Almanac

Astronomy

May. 27, 2015 Rise Set
Actual Time
Civil Twilight
Nautical Twilight
Astronomical Twilight
Moon
Length of Visible Light
Length of Day
Tomorrow will be .
, % of the Moon is Illuminated

Today's Extremes

State Highs State Lows

Community

WunderPhotos

Upload Photos

1,824,634 photos uploaded!

WunderBlogs® & News

Nearby

Air Quality

  Air Quality AQ Index Pollutant
Not available.

Snow Depth

Station Depth Elevation

Earthquake Activity

City Distance Mag. Time & Date
Minimum magnitude displayed is 2.5.

Coastal Water Temperatures

Place Temperature

Stations

Nearby Weather Stations

Station Location Temp. Windchill Dew Point Humidity Wind Precip. Elev Updated Type